sensor_id;sensor_type;location;lat;lon;timestamp;temperature;humidity
7384;DHT22;3733;47.994;8.820;2023-07-13T00:01:29;18.90;99.90
7384;DHT22;3733;47.994;8.820;2023-07-13T00:03:56;18.80;99.90
7384;DHT22;3733;47.994;8.820;2023-07-13T00:06:22;18.80;99.90
7384;DHT22;3733;47.994;8.820;2023-07-13T00:08:48;18.70;99.90
7384;DHT22;3733;47.994;8.820;2023-07-13T00:11:15;18.70;99.90
7384;DHT22;3733;47.994;8.820;2023-07-13T00:13:41;18.70;99.90
7384;DHT22;3733;47.994;8.820;2023-07-13T00:16:08;18.70;99.90
7384;DHT22;3733;47.994;8.820;2023-07-13T00:18:34;18.70;99.90
7384;DHT22;3733;47.994;8.820;2023-07-13T00:21:00;18.80;99.90
7384;DHT22;3733;47.994;8.820;2023-07-13T00:23:34;18.80;99.90
7384;DHT22;3733;47.994;8.820;2023-07-13T00:26:01;18.80;99.90
7384;DHT22;3733;47.994;8.820;2023-07-13T00:28:27;18.80;99.90
7384;DHT22;3733;47.994;8.820;2023-07-13T00:30:52;18.90;99.90
7384;DHT22;3733;47.994;8.820;2023-07-13T00:33:19;18.90;99.90
7384;DHT22;3733;47.994;8.820;2023-07-13T00:35:45;18.90;99.90
7384;DHT22;3733;47.994;8.820;2023-07-13T00:38:11;18.90;99.90
7384;DHT22;3733;47.994;8.820;2023-07-13T00:40:36;18.90;99.90
7384;DHT22;3733;47.994;8.820;2023-07-13T00:43:02;18.90;99.90
7384;DHT22;3733;47.994;8.820;2023-07-13T00:47:55;18.80;99.90
7384;DHT22;3733;47.994;8.820;2023-07-13T00:50:23;18.80;99.90
7384;DHT22;3733;47.994;8.820;2023-07-13T00:52:54;18.80;99.90
7384;DHT22;3733;47.994;8.820;2023-07-13T00:55:21;18.70;99.90
7384;DHT22;3733;47.994;8.820;2023-07-13T00:57:47;18.60;99.90
7384;DHT22;3733;47.994;8.820;2023-07-13T01:00:12;18.60;99.90
7384;DHT22;3733;47.994;8.820;2023-07-13T01:02:40;18.50;99.90
7384;DHT22;3733;47.994;8.820;2023-07-13T01:05:15;18.50;99.90
7384;DHT22;3733;47.994;8.820;2023-07-13T01:07:42;18.40;99.90
7384;DHT22;3733;47.994;8.820;2023-07-13T01:10:10;18.30;99.90
7384;DHT22;3733;47.994;8.820;2023-07-13T01:12:36;18.30;99.90
7384;DHT22;3733;47.994;8.820;2023-07-13T01:15:03;18.20;99.90
7384;DHT22;3733;47.994;8.820;2023-07-13T01:17:30;18.20;99.90
7384;DHT22;3733;47.994;8.820;2023-07-13T01:19:56;18.20;99.90
7384;DHT22;3733;47.994;8.820;2023-07-13T01:22:21;18.20;99.90
7384;DHT22;3733;47.994;8.820;2023-07-13T01:24:53;18.20;99.90
7384;DHT22;3733;47.994;8.820;2023-07-13T01:27:23;18.20;99.90
7384;DHT22;3733;47.994;8.820;2023-07-13T01:29:50;18.20;99.90
7384;DHT22;3733;47.994;8.820;2023-07-13T01:32:20;18.20;99.90
7384;DHT22;3733;47.994;8.820;2023-07-13T01:34:47;18.20;99.90
7384;DHT22;3733;47.994;8.820;2023-07-13T01:37:12;18.20;99.90
7384;DHT22;3733;47.994;8.820;2023-07-13T01:39:38;18.20;99.90
7384;DHT22;3733;47.994;8.820;2023-07-13T01:42:04;18.20;99.90
7384;DHT22;3733;47.994;8.820;2023-07-13T01:44:29;18.20;99.90
7384;DHT22;3733;47.994;8.820;2023-07-13T01:46:56;18.10;99.90
7384;DHT22;3733;47.994;8.820;2023-07-13T01:49:22;18.10;99.90
7384;DHT22;3733;47.994;8.820;2023-07-13T01:51:48;18.00;99.90
7384;DHT22;3733;47.994;8.820;2023-07-13T01:54:13;18.00;99.90
7384;DHT22;3733;47.994;8.820;2023-07-13T01:56:39;17.90;99.90
7384;DHT22;3733;47.994;8.820;2023-07-13T01:59:05;17.90;99.90
7384;DHT22;3733;47.994;8.820;2023-07-13T02:01:30;17.90;99.90
7384;DHT22;3733;47.994;8.820;2023-07-13T02:03:56;17.90;99.90
7384;DHT22;3733;47.994;8.820;2023-07-13T02:06:22;17.80;99.90
7384;DHT22;3733;47.994;8.820;2023-07-13T02:08:47;17.80;99.90
7384;DHT22;3733;47.994;8.820;2023-07-13T02:11:13;17.70;99.90
7384;DHT22;3733;47.994;8.820;2023-07-13T02:13:39;17.70;99.90
7384;DHT22;3733;47.994;8.820;2023-07-13T02:16:04;17.70;99.90
7384;DHT22;3733;47.994;8.820;2023-07-13T02:18:30;17.70;99.90
7384;DHT22;3733;47.994;8.820;2023-07-13T02:20:56;17.70;99.90
7384;DHT22;3733;47.994;8.820;2023-07-13T02:23:21;17.70;99.90
7384;DHT22;3733;47.994;8.820;2023-07-13T02:25:47;17.70;99.90
7384;DHT22;3733;47.994;8.820;2023-07-13T02:28:12;17.70;99.90
7384;DHT22;3733;47.994;8.820;2023-07-13T02:30:38;17.70;99.90
7384;DHT22;3733;47.994;8.820;2023-07-13T02:33:04;17.70;99.90
7384;DHT22;3733;47.994;8.820;2023-07-13T02:35:30;17.80;99.90
7384;DHT22;3733;47.994;8.820;2023-07-13T02:37:56;17.70;99.90
7384;DHT22;3733;47.994;8.820;2023-07-13T02:40:22;17.80;99.90
7384;DHT22;3733;47.994;8.820;2023-07-13T02:42:47;17.70;99.90
7384;DHT22;3733;47.994;8.820;2023-07-13T02:45:13;17.70;99.90
7384;DHT22;3733;47.994;8.820;2023-07-13T02:47:40;17.70;99.90
7384;DHT22;3733;47.994;8.820;2023-07-13T02:50:07;17.60;99.90
7384;DHT22;3733;47.994;8.820;2023-07-13T02:52:33;17.60;99.90
7384;DHT22;3733;47.994;8.820;2023-07-13T02:54:59;17.50;99.90
7384;DHT22;3733;47.994;8.820;2023-07-13T02:57:24;17.40;99.90
7384;DHT22;3733;47.994;8.820;2023-07-13T02:59:50;17.30;99.90
7384;DHT22;3733;47.994;8.820;2023-07-13T03:02:16;17.30;99.90
7384;DHT22;3733;47.994;8.820;2023-07-13T03:04:41;17.30;99.90
7384;DHT22;3733;47.994;8.820;2023-07-13T03:07:07;17.20;99.90
7384;DHT22;3733;47.994;8.820;2023-07-13T03:09:34;17.20;99.90
7384;DHT22;3733;47.994;8.820;2023-07-13T03:12:00;17.20;99.90
7384;DHT22;3733;47.994;8.820;2023-07-13T03:14:26;17.10;99.90
7384;DHT22;3733;47.994;8.820;2023-07-13T03:16:52;17.20;99.90
7384;DHT22;3733;47.994;8.820;2023-07-13T03:19:18;17.10;99.90
7384;DHT22;3733;47.994;8.820;2023-07-13T03:21:44;17.10;99.90
7384;DHT22;3733;47.994;8.820;2023-07-13T03:24:10;17.10;99.90
7384;DHT22;3733;47.994;8.820;2023-07-13T03:26:35;17.10;99.90
7384;DHT22;3733;47.994;8.820;2023-07-13T03:29:01;17.10;99.90
7384;DHT22;3733;47.994;8.820;2023-07-13T03:31:28;17.10;99.90
7384;DHT22;3733;47.994;8.820;2023-07-13T03:33:55;17.10;99.90
7384;DHT22;3733;47.994;8.820;2023-07-13T03:36:27;17.00;99.90
7384;DHT22;3733;47.994;8.820;2023-07-13T03:38:55;17.10;99.90
7384;DHT22;3733;47.994;8.820;2023-07-13T03:41:22;17.10;99.90
7384;DHT22;3733;47.994;8.820;2023-07-13T03:43:49;17.10;99.90
7384;DHT22;3733;47.994;8.820;2023-07-13T03:46:16;17.10;99.90
7384;DHT22;3733;47.994;8.820;2023-07-13T03:48:43;17.10;99.90
7384;DHT22;3733;47.994;8.820;2023-07-13T03:51:10;17.10;99.90
7384;DHT22;3733;47.994;8.820;2023-07-13T03:53:39;17.10;99.90
7384;DHT22;3733;47.994;8.820;2023-07-13T03:56:05;17.10;99.90
7384;DHT22;3733;47.994;8.820;2023-07-13T03:58:39;17.10;99.90
7384;DHT22;3733;47.994;8.820;2023-07-13T04:01:06;17.10;99.90
7384;DHT22;3733;47.994;8.820;2023-07-13T04:03:33;17.10;99.90
7384;DHT22;3733;47.994;8.820;2023-07-13T04:06:00;17.20;99.90
7384;DHT22;3733;47.994;8.820;2023-07-13T04:08:31;17.20;99.90
7384;DHT22;3733;47.994;8.820;2023-07-13T04:10:58;17.20;99.90
7384;DHT22;3733;47.994;8.820;2023-07-13T04:13:25;17.30;99.90
7384;DHT22;3733;47.994;8.820;2023-07-13T04:15:51;17.30;99.90
7384;DHT22;3733;47.994;8.820;2023-07-13T04:18:16;17.40;99.90
7384;DHT22;3733;47.994;8.820;2023-07-13T04:20:42;17.40;99.90
7384;DHT22;3733;47.994;8.820;2023-07-13T04:23:08;17.40;99.90
7384;DHT22;3733;47.994;8.820;2023-07-13T04:25:33;17.40;99.90
7384;DHT22;3733;47.994;8.820;2023-07-13T04:27:59;17.50;99.90
7384;DHT22;3733;47.994;8.820;2023-07-13T04:30:25;17.50;99.90
7384;DHT22;3733;47.994;8.820;2023-07-13T04:32:52;17.50;99.90
7384;DHT22;3733;47.994;8.820;2023-07-13T04:35:19;17.50;99.90
7384;DHT22;3733;47.994;8.820;2023-07-13T04:37:46;17.50;99.90
7384;DHT22;3733;47.994;8.820;2023-07-13T04:40:12;17.50;99.90
7384;DHT22;3733;47.994;8.820;2023-07-13T04:42:38;17.50;99.90
7384;DHT22;3733;47.994;8.820;2023-07-13T04:45:06;17.40;99.90
7384;DHT22;3733;47.994;8.820;2023-07-13T04:47:32;17.40;99.90
7384;DHT22;3733;47.994;8.820;2023-07-13T04:49:57;17.30;99.90
7384;DHT22;3733;47.994;8.820;2023-07-13T04:52:23;17.30;99.90
7384;DHT22;3733;47.994;8.820;2023-07-13T04:54:49;17.20;99.90
7384;DHT22;3733;47.994;8.820;2023-07-13T04:57:15;17.10;99.90
7384;DHT22;3733;47.994;8.820;2023-07-13T04:59:41;17.10;99.90
7384;DHT22;3733;47.994;8.820;2023-07-13T05:02:06;17.10;99.90
7384;DHT22;3733;47.994;8.820;2023-07-13T05:04:32;17.10;99.90
7384;DHT22;3733;47.994;8.820;2023-07-13T05:06:59;17.00;99.90
7384;DHT22;3733;47.994;8.820;2023-07-13T05:09:25;17.00;99.90
7384;DHT22;3733;47.994;8.820;2023-07-13T05:11:50;17.00;99.90
7384;DHT22;3733;47.994;8.820;2023-07-13T05:14:16;17.10;99.90
7384;DHT22;3733;47.994;8.820;2023-07-13T05:16:42;17.10;99.90
7384;DHT22;3733;47.994;8.820;2023-07-13T05:19:08;17.20;99.90
7384;DHT22;3733;47.994;8.820;2023-07-13T05:21:34;17.20;99.90
7384;DHT22;3733;47.994;8.820;2023-07-13T05:23:59;17.20;99.90
7384;DHT22;3733;47.994;8.820;2023-07-13T05:26:25;17.20;99.90
7384;DHT22;3733;47.994;8.820;2023-07-13T05:28:51;17.30;99.90
7384;DHT22;3733;47.994;8.820;2023-07-13T05:31:16;17.30;99.90
7384;DHT22;3733;47.994;8.820;2023-07-13T05:33:42;17.30;99.90
7384;DHT22;3733;47.994;8.820;2023-07-13T05:36:07;17.30;99.90
7384;DHT22;3733;47.994;8.820;2023-07-13T05:38:33;17.30;99.90
7384;DHT22;3733;47.994;8.820;2023-07-13T05:40:59;17.30;99.90
7384;DHT22;3733;47.994;8.820;2023-07-13T05:43:25;17.40;99.90
7384;DHT22;3733;47.994;8.820;2023-07-13T05:45:53;17.40;99.90
7384;DHT22;3733;47.994;8.820;2023-07-13T05:48:19;17.50;99.90
7384;DHT22;3733;47.994;8.820;2023-07-13T05:50:45;17.50;99.90
7384;DHT22;3733;47.994;8.820;2023-07-13T05:53:11;17.60;99.90
7384;DHT22;3733;47.994;8.820;2023-07-13T05:55:44;17.70;99.90
7384;DHT22;3733;47.994;8.820;2023-07-13T05:58:13;17.70;99.90
7384;DHT22;3733;47.994;8.820;2023-07-13T06:00:39;17.70;99.90
7384;DHT22;3733;47.994;8.820;2023-07-13T06:03:06;17.70;99.90
7384;DHT22;3733;47.994;8.820;2023-07-13T06:05:32;17.80;99.90
7384;DHT22;3733;47.994;8.820;2023-07-13T06:07:59;17.90;99.90
7384;DHT22;3733;47.994;8.820;2023-07-13T06:10:24;17.90;99.90
7384;DHT22;3733;47.994;8.820;2023-07-13T06:12:50;18.00;99.90
7384;DHT22;3733;47.994;8.820;2023-07-13T06:15:16;18.00;99.90
7384;DHT22;3733;47.994;8.820;2023-07-13T06:17:42;18.10;99.90
7384;DHT22;3733;47.994;8.820;2023-07-13T06:20:08;18.20;99.90
7384;DHT22;3733;47.994;8.820;2023-07-13T06:22:33;18.30;99.90
7384;DHT22;3733;47.994;8.820;2023-07-13T06:24:59;18.30;99.90
7384;DHT22;3733;47.994;8.820;2023-07-13T06:27:24;18.30;99.90
7384;DHT22;3733;47.994;8.820;2023-07-13T06:29:50;18.30;99.90
7384;DHT22;3733;47.994;8.820;2023-07-13T06:32:16;18.40;99.90
7384;DHT22;3733;47.994;8.820;2023-07-13T06:34:41;18.40;99.90
7384;DHT22;3733;47.994;8.820;2023-07-13T06:37:07;18.50;98.40
7384;DHT22;3733;47.994;8.820;2023-07-13T06:39:32;18.60;96.80
7384;DHT22;3733;47.994;8.820;2023-07-13T06:41:58;18.60;92.30
7384;DHT22;3733;47.994;8.820;2023-07-13T06:44:25;18.50;89.60
7384;DHT22;3733;47.994;8.820;2023-07-13T06:46:50;18.60;85.20
7384;DHT22;3733;47.994;8.820;2023-07-13T06:49:16;18.60;84.60
7384;DHT22;3733;47.994;8.820;2023-07-13T06:51:41;18.60;87.20
7384;DHT22;3733;47.994;8.820;2023-07-13T06:54:07;18.70;86.50
7384;DHT22;3733;47.994;8.820;2023-07-13T06:56:32;18.70;85.40
7384;DHT22;3733;47.994;8.820;2023-07-13T06:58:58;18.80;84.10
7384;DHT22;3733;47.994;8.820;2023-07-13T07:01:24;18.80;81.70
7384;DHT22;3733;47.994;8.820;2023-07-13T07:03:49;18.90;76.00
7384;DHT22;3733;47.994;8.820;2023-07-13T07:06:21;18.90;73.40
7384;DHT22;3733;47.994;8.820;2023-07-13T07:08:49;18.90;72.60
7384;DHT22;3733;47.994;8.820;2023-07-13T07:11:18;19.00;70.50
7384;DHT22;3733;47.994;8.820;2023-07-13T07:13:44;19.10;71.30
7384;DHT22;3733;47.994;8.820;2023-07-13T07:16:09;19.10;72.30
7384;DHT22;3733;47.994;8.820;2023-07-13T07:18:35;19.20;71.10
7384;DHT22;3733;47.994;8.820;2023-07-13T07:21:01;19.20;70.60
7384;DHT22;3733;47.994;8.820;2023-07-13T07:23:27;19.30;70.30
7384;DHT22;3733;47.994;8.820;2023-07-13T07:25:52;19.20;63.80
7384;DHT22;3733;47.994;8.820;2023-07-13T07:28:18;19.20;63.70
7384;DHT22;3733;47.994;8.820;2023-07-13T07:30:45;19.20;64.20
7384;DHT22;3733;47.994;8.820;2023-07-13T07:33:11;19.20;60.70
7384;DHT22;3733;47.994;8.820;2023-07-13T07:35:37;19.30;61.20
7384;DHT22;3733;47.994;8.820;2023-07-13T07:38:03;19.50;61.70
7384;DHT22;3733;47.994;8.820;2023-07-13T07:40:29;19.80;61.40
7384;DHT22;3733;47.994;8.820;2023-07-13T07:42:54;20.00;58.70
7384;DHT22;3733;47.994;8.820;2023-07-13T07:45:20;20.00;56.70
7384;DHT22;3733;47.994;8.820;2023-07-13T07:47:46;20.10;55.50
7384;DHT22;3733;47.994;8.820;2023-07-13T07:50:12;20.20;56.70
7384;DHT22;3733;47.994;8.820;2023-07-13T07:52:37;20.40;58.80
7384;DHT22;3733;47.994;8.820;2023-07-13T07:55:05;20.60;59.30
7384;DHT22;3733;47.994;8.820;2023-07-13T07:57:31;20.90;58.20
7384;DHT22;3733;47.994;8.820;2023-07-13T07:59:57;20.90;56.20
7384;DHT22;3733;47.994;8.820;2023-07-13T08:02:22;20.90;54.90
7384;DHT22;3733;47.994;8.820;2023-07-13T08:04:48;20.80;56.20
7384;DHT22;3733;47.994;8.820;2023-07-13T08:07:13;20.70;56.70
7384;DHT22;3733;47.994;8.820;2023-07-13T08:09:39;20.70;57.30
7384;DHT22;3733;47.994;8.820;2023-07-13T08:12:05;20.60;56.20
7384;DHT22;3733;47.994;8.820;2023-07-13T08:14:30;20.60;55.60
7384;DHT22;3733;47.994;8.820;2023-07-13T08:16:56;20.60;55.50
7384;DHT22;3733;47.994;8.820;2023-07-13T08:19:22;20.60;55.20
7384;DHT22;3733;47.994;8.820;2023-07-13T08:21:47;20.60;55.30
7384;DHT22;3733;47.994;8.820;2023-07-13T08:24:14;20.60;54.80
7384;DHT22;3733;47.994;8.820;2023-07-13T08:26:40;20.60;55.00
7384;DHT22;3733;47.994;8.820;2023-07-13T08:29:06;20.70;55.10
7384;DHT22;3733;47.994;8.820;2023-07-13T08:31:31;20.70;55.50
7384;DHT22;3733;47.994;8.820;2023-07-13T08:33:57;20.80;55.70
7384;DHT22;3733;47.994;8.820;2023-07-13T08:36:22;20.90;55.40
7384;DHT22;3733;47.994;8.820;2023-07-13T08:38:48;20.90;55.00
7384;DHT22;3733;47.994;8.820;2023-07-13T08:41:16;21.00;54.70
7384;DHT22;3733;47.994;8.820;2023-07-13T08:43:46;21.00;54.30
7384;DHT22;3733;47.994;8.820;2023-07-13T08:49:11;21.00;55.50
7384;DHT22;3733;47.994;8.820;2023-07-13T08:54:32;21.00;55.70
7384;DHT22;3733;47.994;8.820;2023-07-13T08:57:05;21.00;55.50
7384;DHT22;3733;47.994;8.820;2023-07-13T08:59:35;20.90;55.70
7384;DHT22;3733;47.994;8.820;2023-07-13T09:04:34;20.80;55.80
7384;DHT22;3733;47.994;8.820;2023-07-13T09:20:56;21.10;58.10
7384;DHT22;3733;47.994;8.820;2023-07-13T09:23:24;21.30;58.30
7384;DHT22;3733;47.994;8.820;2023-07-13T09:26:06;21.60;58.80
7384;DHT22;3733;47.994;8.820;2023-07-13T09:28:43;21.80;58.40
7384;DHT22;3733;47.994;8.820;2023-07-13T09:31:17;22.00;56.20
7384;DHT22;3733;47.994;8.820;2023-07-13T09:33:44;22.20;56.10
7384;DHT22;3733;47.994;8.820;2023-07-13T09:36:31;22.40;56.00
7384;DHT22;3733;47.994;8.820;2023-07-13T09:46:35;22.60;56.10
7384;DHT22;3733;47.994;8.820;2023-07-13T09:49:01;22.60;55.30
7384;DHT22;3733;47.994;8.820;2023-07-13T09:51:26;22.60;54.90
7384;DHT22;3733;47.994;8.820;2023-07-13T09:53:53;22.50;54.60
7384;DHT22;3733;47.994;8.820;2023-07-13T09:56:25;22.40;55.20
7384;DHT22;3733;47.994;8.820;2023-07-13T09:58:51;22.20;55.50
7384;DHT22;3733;47.994;8.820;2023-07-13T10:01:37;22.10;56.20
7384;DHT22;3733;47.994;8.820;2023-07-13T10:04:13;22.00;56.10
7384;DHT22;3733;47.994;8.820;2023-07-13T10:06:40;21.80;55.60
7384;DHT22;3733;47.994;8.820;2023-07-13T10:09:09;21.70;56.20
7384;DHT22;3733;47.994;8.820;2023-07-13T10:11:37;21.70;56.40
7384;DHT22;3733;47.994;8.820;2023-07-13T10:14:20;21.60;57.00
7384;DHT22;3733;47.994;8.820;2023-07-13T10:17:01;21.80;56.20
7384;DHT22;3733;47.994;8.820;2023-07-13T10:19:32;21.90;55.30
7384;DHT22;3733;47.994;8.820;2023-07-13T10:22:14;21.90;56.30
7384;DHT22;3733;47.994;8.820;2023-07-13T10:24:45;21.90;55.60
7384;DHT22;3733;47.994;8.820;2023-07-13T10:27:18;21.70;55.50
7384;DHT22;3733;47.994;8.820;2023-07-13T10:29:52;21.60;55.60
7384;DHT22;3733;47.994;8.820;2023-07-13T10:32:22;21.50;55.80
7384;DHT22;3733;47.994;8.820;2023-07-13T10:34:50;21.50;56.10
7384;DHT22;3733;47.994;8.820;2023-07-13T10:37:23;21.60;56.90
7384;DHT22;3733;47.994;8.820;2023-07-13T10:39:52;21.70;57.30
7384;DHT22;3733;47.994;8.820;2023-07-13T10:42:35;21.70;56.90
7384;DHT22;3733;47.994;8.820;2023-07-13T10:45:11;21.70;56.30
7384;DHT22;3733;47.994;8.820;2023-07-13T10:47:37;21.60;56.70
7384;DHT22;3733;47.994;8.820;2023-07-13T10:50:05;21.60;56.80
7384;DHT22;3733;47.994;8.820;2023-07-13T10:52:45;21.60;57.20
7384;DHT22;3733;47.994;8.820;2023-07-13T10:58:01;21.60;57.30
7384;DHT22;3733;47.994;8.820;2023-07-13T11:00:30;21.80;58.20
7384;DHT22;3733;47.994;8.820;2023-07-13T11:02:57;22.00;57.80
7384;DHT22;3733;47.994;8.820;2023-07-13T11:05:27;22.40;58.00
7384;DHT22;3733;47.994;8.820;2023-07-13T11:08:16;22.70;57.40
7384;DHT22;3733;47.994;8.820;2023-07-13T11:10:55;23.00;57.30
7384;DHT22;3733;47.994;8.820;2023-07-13T11:19:08;23.00;56.80
7384;DHT22;3733;47.994;8.820;2023-07-13T11:27:37;22.30;56.20
7384;DHT22;3733;47.994;8.820;2023-07-13T11:35:36;21.90;56.90
7384;DHT22;3733;47.994;8.820;2023-07-13T11:38:16;21.80;56.60
7384;DHT22;3733;47.994;8.820;2023-07-13T11:40:44;21.80;57.10
7384;DHT22;3733;47.994;8.820;2023-07-13T11:43:15;21.90;57.60
7384;DHT22;3733;47.994;8.820;2023-07-13T11:45:42;22.00;56.60
7384;DHT22;3733;47.994;8.820;2023-07-13T11:48:28;22.10;56.40
7384;DHT22;3733;47.994;8.820;2023-07-13T11:51:04;22.10;56.50
7384;DHT22;3733;47.994;8.820;2023-07-13T11:53:44;22.10;55.80
7384;DHT22;3733;47.994;8.820;2023-07-13T11:56:11;22.20;56.20
7384;DHT22;3733;47.994;8.820;2023-07-13T11:58:38;22.20;55.20
7384;DHT22;3733;47.994;8.820;2023-07-13T12:01:04;22.20;54.90
7384;DHT22;3733;47.994;8.820;2023-07-13T12:03:30;22.10;54.70
7384;DHT22;3733;47.994;8.820;2023-07-13T12:06:03;22.10;55.50
7384;DHT22;3733;47.994;8.820;2023-07-13T12:08:31;22.20;54.10
7384;DHT22;3733;47.994;8.820;2023-07-13T12:11:05;22.50;54.30
7384;DHT22;3733;47.994;8.820;2023-07-13T12:13:37;22.90;55.30
7384;DHT22;3733;47.994;8.820;2023-07-13T12:16:12;23.40;55.40
7384;DHT22;3733;47.994;8.820;2023-07-13T12:18:38;23.80;54.90
7384;DHT22;3733;47.994;8.820;2023-07-13T12:21:04;24.00;54.00
7384;DHT22;3733;47.994;8.820;2023-07-13T12:23:33;24.50;53.80
7384;DHT22;3733;47.994;8.820;2023-07-13T12:26:02;24.70;52.40
7384;DHT22;3733;47.994;8.820;2023-07-13T12:28:36;24.50;51.60
7384;DHT22;3733;47.994;8.820;2023-07-13T12:31:05;24.40;52.60
7384;DHT22;3733;47.994;8.820;2023-07-13T12:33:32;24.20;51.50
7384;DHT22;3733;47.994;8.820;2023-07-13T12:36:01;24.00;52.10
7384;DHT22;3733;47.994;8.820;2023-07-13T12:38:29;23.90;52.20
7384;DHT22;3733;47.994;8.820;2023-07-13T12:40:55;23.70;51.80
7384;DHT22;3733;47.994;8.820;2023-07-13T12:43:22;23.50;52.10
7384;DHT22;3733;47.994;8.820;2023-07-13T12:46:01;23.30;52.70
7384;DHT22;3733;47.994;8.820;2023-07-13T12:48:27;23.20;53.00
7384;DHT22;3733;47.994;8.820;2023-07-13T12:50:54;23.20;53.70
7384;DHT22;3733;47.994;8.820;2023-07-13T12:53:28;23.10;53.40
7384;DHT22;3733;47.994;8.820;2023-07-13T12:55:56;23.10;53.00
7384;DHT22;3733;47.994;8.820;2023-07-13T12:58:39;23.00;54.00
7384;DHT22;3733;47.994;8.820;2023-07-13T13:01:12;22.90;54.50
7384;DHT22;3733;47.994;8.820;2023-07-13T13:03:46;23.00;54.50
7384;DHT22;3733;47.994;8.820;2023-07-13T13:08:46;22.80;54.70
7384;DHT22;3733;47.994;8.820;2023-07-13T13:11:18;22.80;54.70
7384;DHT22;3733;47.994;8.820;2023-07-13T13:13:44;22.80;53.80
7384;DHT22;3733;47.994;8.820;2023-07-13T13:18:41;22.70;54.00
7384;DHT22;3733;47.994;8.820;2023-07-13T13:21:09;22.70;54.60
7384;DHT22;3733;47.994;8.820;2023-07-13T13:23:35;22.70;55.40
7384;DHT22;3733;47.994;8.820;2023-07-13T13:26:01;22.70;55.00
7384;DHT22;3733;47.994;8.820;2023-07-13T13:28:27;22.60;54.80
7384;DHT22;3733;47.994;8.820;2023-07-13T13:30:52;22.60;54.90
7384;DHT22;3733;47.994;8.820;2023-07-13T13:33:19;22.70;55.50
7384;DHT22;3733;47.994;8.820;2023-07-13T13:35:46;23.00;55.20
7384;DHT22;3733;47.994;8.820;2023-07-13T13:38:16;23.60;54.40
7384;DHT22;3733;47.994;8.820;2023-07-13T13:40:43;24.30;53.30
7384;DHT22;3733;47.994;8.820;2023-07-13T13:43:25;24.90;52.70
7384;DHT22;3733;47.994;8.820;2023-07-13T13:45:53;25.30;53.10
7384;DHT22;3733;47.994;8.820;2023-07-13T13:48:35;25.80;51.80
7384;DHT22;3733;47.994;8.820;2023-07-13T13:51:11;26.30;49.90
7384;DHT22;3733;47.994;8.820;2023-07-13T13:53:37;26.30;48.20
7384;DHT22;3733;47.994;8.820;2023-07-13T13:56:05;26.10;48.30
7384;DHT22;3733;47.994;8.820;2023-07-13T13:58:31;26.20;49.40
7384;DHT22;3733;47.994;8.820;2023-07-13T14:00:56;26.00;46.80
7384;DHT22;3733;47.994;8.820;2023-07-13T14:03:24;25.50;47.10
7384;DHT22;3733;47.994;8.820;2023-07-13T14:05:49;25.10;48.70
7384;DHT22;3733;47.994;8.820;2023-07-13T14:08:18;24.70;49.40
7384;DHT22;3733;47.994;8.820;2023-07-13T14:10:45;24.50;49.90
7384;DHT22;3733;47.994;8.820;2023-07-13T14:15:43;24.10;51.60
7384;DHT22;3733;47.994;8.820;2023-07-13T14:18:08;24.00;52.70
7384;DHT22;3733;47.994;8.820;2023-07-13T14:20:34;23.80;52.70
7384;DHT22;3733;47.994;8.820;2023-07-13T14:23:00;23.70;52.80
7384;DHT22;3733;47.994;8.820;2023-07-13T14:25:26;23.50;52.60
7384;DHT22;3733;47.994;8.820;2023-07-13T14:27:57;23.50;53.20
7384;DHT22;3733;47.994;8.820;2023-07-13T14:30:24;23.40;54.40
7384;DHT22;3733;47.994;8.820;2023-07-13T14:32:50;23.30;53.40
7384;DHT22;3733;47.994;8.820;2023-07-13T14:35:18;23.20;51.70
7384;DHT22;3733;47.994;8.820;2023-07-13T14:37:46;23.10;52.40
7384;DHT22;3733;47.994;8.820;2023-07-13T14:40:32;23.10;52.60
7384;DHT22;3733;47.994;8.820;2023-07-13T14:42:58;23.10;53.50
7384;DHT22;3733;47.994;8.820;2023-07-13T14:45:24;23.40;54.20
7384;DHT22;3733;47.994;8.820;2023-07-13T14:47:51;24.20;53.70
7384;DHT22;3733;47.994;8.820;2023-07-13T14:50:24;25.00;52.50
7384;DHT22;3733;47.994;8.820;2023-07-13T14:52:52;25.90;51.40
7384;DHT22;3733;47.994;8.820;2023-07-13T14:55:18;26.30;51.60
7384;DHT22;3733;47.994;8.820;2023-07-13T14:57:44;26.50;49.70
7384;DHT22;3733;47.994;8.820;2023-07-13T15:00:19;26.50;48.90
7384;DHT22;3733;47.994;8.820;2023-07-13T15:02:50;26.60;48.30
7384;DHT22;3733;47.994;8.820;2023-07-13T15:05:19;26.90;48.50
7384;DHT22;3733;47.994;8.820;2023-07-13T15:07:46;27.30;48.10
7384;DHT22;3733;47.994;8.820;2023-07-13T15:10:14;27.60;47.80
7384;DHT22;3733;47.994;8.820;2023-07-13T15:12:40;27.90;47.10
7384;DHT22;3733;47.994;8.820;2023-07-13T15:15:05;27.90;46.60
7384;DHT22;3733;47.994;8.820;2023-07-13T15:17:43;27.60;47.30
7384;DHT22;3733;47.994;8.820;2023-07-13T15:20:31;27.20;47.50
7384;DHT22;3733;47.994;8.820;2023-07-13T15:22:58;26.90;46.20
7384;DHT22;3733;47.994;8.820;2023-07-13T15:25:27;26.80;47.50
7384;DHT22;3733;47.994;8.820;2023-07-13T15:27:54;26.70;48.20
7384;DHT22;3733;47.994;8.820;2023-07-13T15:30:21;26.30;46.80
7384;DHT22;3733;47.994;8.820;2023-07-13T15:32:47;26.00;47.20
7384;DHT22;3733;47.994;8.820;2023-07-13T15:35:18;25.70;48.60
7384;DHT22;3733;47.994;8.820;2023-07-13T15:37:45;25.50;50.50
7384;DHT22;3733;47.994;8.820;2023-07-13T15:40:11;25.60;51.50
7384;DHT22;3733;47.994;8.820;2023-07-13T15:42:39;25.40;51.80
7384;DHT22;3733;47.994;8.820;2023-07-13T15:45:24;25.30;51.70
7384;DHT22;3733;47.994;8.820;2023-07-13T15:47:51;25.70;51.80
7384;DHT22;3733;47.994;8.820;2023-07-13T15:50:22;26.20;50.00
7384;DHT22;3733;47.994;8.820;2023-07-13T15:52:51;26.80;47.70
7384;DHT22;3733;47.994;8.820;2023-07-13T15:55:18;27.30;44.70
7384;DHT22;3733;47.994;8.820;2023-07-13T15:57:50;27.50;43.40
7384;DHT22;3733;47.994;8.820;2023-07-13T16:02:46;27.10;42.90
7384;DHT22;3733;47.994;8.820;2023-07-13T16:05:12;27.00;43.10
7384;DHT22;3733;47.994;8.820;2023-07-13T16:07:37;26.80;43.00
7384;DHT22;3733;47.994;8.820;2023-07-13T16:10:03;26.60;42.70
7384;DHT22;3733;47.994;8.820;2023-07-13T16:12:29;26.40;42.20
7384;DHT22;3733;47.994;8.820;2023-07-13T16:14:54;26.30;42.60
7384;DHT22;3733;47.994;8.820;2023-07-13T16:17:20;26.30;41.80
7384;DHT22;3733;47.994;8.820;2023-07-13T16:19:45;26.30;42.10
7384;DHT22;3733;47.994;8.820;2023-07-13T16:22:18;26.20;42.40
7384;DHT22;3733;47.994;8.820;2023-07-13T16:24:46;26.20;41.20
7384;DHT22;3733;47.994;8.820;2023-07-13T16:27:12;26.40;42.60
7384;DHT22;3733;47.994;8.820;2023-07-13T16:29:38;26.80;42.10
7384;DHT22;3733;47.994;8.820;2023-07-13T16:32:12;27.00;40.20
7384;DHT22;3733;47.994;8.820;2023-07-13T16:34:40;27.10;40.20
7384;DHT22;3733;47.994;8.820;2023-07-13T16:37:21;27.20;39.70
7384;DHT22;3733;47.994;8.820;2023-07-13T16:39:53;27.20;39.90
7384;DHT22;3733;47.994;8.820;2023-07-13T16:42:21;27.20;39.20
7384;DHT22;3733;47.994;8.820;2023-07-13T16:44:47;27.10;39.20
7384;DHT22;3733;47.994;8.820;2023-07-13T16:47:14;27.00;39.50
7384;DHT22;3733;47.994;8.820;2023-07-13T16:49:41;26.90;39.50
7384;DHT22;3733;47.994;8.820;2023-07-13T16:52:10;26.80;39.70
7384;DHT22;3733;47.994;8.820;2023-07-13T16:54:37;26.70;40.50
7384;DHT22;3733;47.994;8.820;2023-07-13T16:57:16;26.60;40.60
7384;DHT22;3733;47.994;8.820;2023-07-13T16:59:42;26.40;40.10
7384;DHT22;3733;47.994;8.820;2023-07-13T17:04:49;26.10;41.60
7384;DHT22;3733;47.994;8.820;2023-07-13T17:07:15;25.80;40.90
7384;DHT22;3733;47.994;8.820;2023-07-13T17:09:43;25.60;41.30
7384;DHT22;3733;47.994;8.820;2023-07-13T17:12:11;25.30;41.80